createdAt,value
2022-12-07T00:00:49.442Z,11.33
2022-12-07T00:03:16.897Z,10.43
2022-12-07T00:05:45.645Z,10.33
2022-12-07T00:08:13.063Z,10.60
2022-12-07T00:10:40.462Z,10.30
2022-12-07T00:13:07.855Z,10.63
2022-12-07T00:15:35.792Z,9.67
2022-12-07T00:18:04.260Z,10.13
2022-12-07T00:20:32.165Z,10.23
2022-12-07T00:23:00.996Z,9.37
2022-12-07T00:25:28.479Z,10.63
2022-12-07T00:27:57.142Z,9.37
2022-12-07T00:30:24.775Z,10.00
2022-12-07T00:32:52.335Z,10.13
2022-12-07T00:35:19.928Z,9.17
2022-12-07T00:37:47.332Z,9.63
2022-12-07T00:40:16.197Z,9.73
2022-12-07T00:42:43.604Z,9.23
2022-12-07T00:45:11.166Z,9.90
2022-12-07T00:47:38.623Z,9.17
2022-12-07T00:50:06.672Z,9.33
2022-12-07T00:52:34.071Z,10.23
2022-12-07T00:55:01.553Z,9.30
2022-12-07T00:57:32.081Z,11.27
2022-12-07T01:00:01.587Z,9.50
2022-12-07T01:02:29.163Z,9.47
2022-12-07T01:04:56.581Z,9.27
2022-12-07T01:07:24.009Z,9.07
2022-12-07T01:09:51.448Z,9.00
2022-12-07T01:12:18.854Z,9.60
2022-12-07T01:14:47.683Z,10.23
2022-12-07T01:17:15.162Z,9.03
2022-12-07T01:19:42.601Z,9.13
2022-12-07T01:22:10.052Z,10.17
2022-12-07T01:24:37.488Z,11.60
2022-12-07T01:27:04.892Z,10.27
2022-12-07T01:29:32.332Z,10.73
2022-12-07T01:32:01.070Z,10.87
2022-12-07T01:34:28.482Z,10.47
2022-12-07T01:36:55.908Z,9.67
2022-12-07T01:39:23.501Z,10.27
2022-12-07T01:41:50.987Z,10.23
2022-12-07T01:44:20.688Z,10.80
2022-12-07T01:46:49.011Z,12.07
2022-12-07T01:49:30.171Z,10.80
2022-12-07T01:52:00.138Z,11.33
2022-12-07T01:54:27.815Z,12.07
2022-12-07T01:56:56.748Z,11.80
2022-12-07T01:59:26.638Z,10.93
2022-12-07T02:01:55.019Z,11.80
2022-12-07T02:04:23.286Z,11.73
2022-12-07T02:06:52.444Z,10.40
2022-12-07T02:09:19.906Z,9.10
2022-12-07T02:11:47.380Z,9.67
2022-12-07T02:14:14.835Z,11.03
2022-12-07T02:16:46.437Z,10.27
2022-12-07T02:19:27.956Z,11.93
2022-12-07T02:22:02.409Z,11.17
2022-12-07T02:24:38.659Z,10.60
2022-12-07T02:27:13.050Z,12.17
2022-12-07T02:29:45.142Z,11.60
2022-12-07T02:32:15.954Z,10.43
2022-12-07T02:34:46.151Z,10.87
2022-12-07T02:37:20.766Z,10.60
2022-12-07T02:39:50.021Z,10.97
2022-12-07T02:42:19.500Z,11.53
2022-12-07T02:44:48.682Z,11.67
2022-12-07T02:47:17.817Z,11.47
2022-12-07T02:49:45.359Z,11.50
2022-12-07T02:52:12.825Z,10.93
2022-12-07T02:54:40.512Z,11.17
2022-12-07T02:57:19.346Z,10.33
2022-12-07T02:59:51.629Z,10.60
2022-12-07T03:02:23.566Z,10.93
2022-12-07T03:04:54.652Z,10.87
2022-12-07T03:07:26.632Z,10.60
2022-12-07T03:09:58.503Z,11.03
2022-12-07T03:12:30.505Z,10.50
2022-12-07T03:15:02.301Z,10.93
2022-12-07T03:17:32.165Z,10.40
2022-12-07T03:20:02.234Z,11.13
2022-12-07T03:22:31.506Z,11.07
2022-12-07T03:25:00.724Z,12.10
2022-12-07T03:27:31.074Z,11.87
2022-12-07T03:30:02.049Z,11.43
2022-12-07T03:32:32.997Z,11.87
2022-12-07T03:35:03.727Z,11.80
2022-12-07T03:37:34.148Z,12.03
2022-12-07T03:40:05.774Z,11.67
2022-12-07T03:42:34.873Z,11.90
2022-12-07T03:45:04.015Z,11.93
2022-12-07T03:47:33.595Z,11.93
2022-12-07T03:50:03.337Z,11.17
2022-12-07T03:52:34.595Z,12.40
2022-12-07T03:55:04.466Z,12.17
2022-12-07T03:57:33.234Z,11.47
2022-12-07T04:00:01.609Z,11.33
2022-12-07T04:02:30.918Z,10.23
2022-12-07T04:04:58.695Z,10.47
2022-12-07T04:07:26.143Z,11.60
2022-12-07T04:09:55.726Z,12.87
2022-12-07T04:12:23.256Z,11.00
2022-12-07T04:14:50.695Z,11.07
2022-12-07T04:17:18.462Z,12.57
2022-12-07T04:19:47.229Z,12.03
2022-12-07T04:22:14.623Z,12.60
2022-12-07T04:24:43.103Z,12.90
2022-12-07T04:27:11.574Z,12.73
2022-12-07T04:29:39.016Z,12.63
2022-12-07T04:32:06.603Z,13.47
2022-12-07T04:34:34.170Z,13.00
2022-12-07T04:37:02.928Z,12.03
2022-12-07T04:39:31.060Z,10.93
2022-12-07T04:41:58.837Z,11.33
2022-12-07T04:44:27.005Z,13.00
2022-12-07T04:46:55.223Z,10.83
2022-12-07T04:49:22.981Z,12.67
2022-12-07T04:51:50.424Z,11.20
2022-12-07T04:54:19.412Z,10.23
2022-12-07T04:56:46.964Z,10.97
2022-12-07T04:59:15.066Z,9.53
2022-12-07T05:01:42.554Z,9.67
2022-12-07T05:04:10.590Z,7.33
2022-12-07T05:06:38.008Z,10.40
2022-12-07T05:09:05.699Z,11.97
2022-12-07T05:11:40.435Z,9.10
2022-12-07T05:14:08.828Z,10.87
2022-12-07T05:16:36.371Z,11.40
2022-12-07T05:19:04.410Z,9.63
2022-12-07T05:21:31.956Z,11.97
2022-12-07T05:23:59.375Z,13.53
2022-12-07T05:26:27.075Z,12.77
2022-12-07T05:28:56.705Z,13.27
2022-12-07T05:31:26.105Z,12.53
2022-12-07T05:33:53.696Z,10.77
2022-12-07T05:36:21.431Z,12.93
2022-12-07T05:38:48.917Z,13.30
2022-12-07T05:41:31.362Z,13.03
2022-12-07T05:44:00.086Z,11.77
2022-12-07T05:46:27.616Z,12.97
2022-12-07T05:48:55.070Z,12.80
2022-12-07T05:51:23.551Z,11.97
2022-12-07T05:53:50.986Z,13.53
2022-12-07T05:56:18.398Z,12.87
2022-12-07T05:59:03.291Z,12.37
2022-12-07T06:01:32.072Z,13.27
2022-12-07T06:03:59.475Z,11.63
2022-12-07T06:06:27.148Z,12.00
2022-12-07T06:08:54.601Z,12.97
2022-12-07T06:11:39.715Z,12.77
2022-12-07T06:14:07.159Z,10.73
2022-12-07T06:16:35.966Z,11.77
2022-12-07T06:19:03.409Z,11.07
2022-12-07T06:21:30.908Z,10.77
2022-12-07T06:23:58.322Z,10.20
2022-12-07T06:26:25.987Z,10.80
2022-12-07T06:28:53.535Z,11.23
2022-12-07T06:31:21.245Z,12.40
2022-12-07T06:33:50.047Z,11.37
2022-12-07T06:36:19.439Z,10.80
2022-12-07T06:38:50.099Z,10.53
2022-12-07T06:41:17.542Z,10.97
2022-12-07T06:43:45.067Z,11.13
2022-12-07T06:46:12.517Z,10.70
2022-12-07T06:48:39.974Z,10.93
2022-12-07T06:51:08.730Z,10.27
2022-12-07T06:53:36.406Z,10.60
2022-12-07T06:56:03.868Z,10.27
2022-12-07T06:58:31.660Z,9.40
2022-12-07T07:00:59.236Z,10.07
2022-12-07T07:03:26.837Z,9.13
2022-12-07T07:05:54.299Z,9.53
2022-12-07T07:08:23.719Z,8.20
2022-12-07T07:10:51.641Z,8.50
2022-12-07T07:13:19.040Z,8.13
2022-12-07T07:15:46.724Z,9.10
2022-12-07T07:18:14.131Z,9.63
2022-12-07T07:20:41.915Z,8.30
2022-12-07T07:23:09.433Z,8.70
2022-12-07T07:25:38.171Z,9.40
2022-12-07T07:28:05.823Z,9.10
2022-12-07T07:30:33.535Z,9.50
2022-12-07T07:33:01.161Z,8.77
2022-12-07T07:35:28.562Z,9.20
2022-12-07T07:37:56.061Z,9.83
2022-12-07T07:40:23.798Z,8.90
2022-12-07T07:42:53.298Z,9.70
2022-12-07T07:45:21.161Z,9.67
2022-12-07T07:47:48.945Z,10.47
2022-12-07T07:50:16.983Z,10.07
2022-12-07T07:52:44.409Z,8.50
2022-12-07T07:55:11.801Z,9.37
2022-12-07T07:57:39.934Z,10.77
2022-12-07T08:00:10.661Z,10.20
2022-12-07T08:02:38.073Z,9.27
2022-12-07T08:05:06.040Z,8.53
2022-12-07T08:07:33.510Z,8.90
2022-12-07T08:10:01.308Z,9.00
2022-12-07T08:12:29.045Z,7.77
2022-12-07T08:14:56.443Z,7.93
2022-12-07T08:17:25.208Z,7.30
2022-12-07T08:19:53.799Z,7.43
2022-12-07T08:22:21.227Z,7.47
2022-12-07T08:24:48.644Z,7.20
2022-12-07T08:27:16.030Z,6.53
2022-12-07T08:29:43.424Z,6.80
2022-12-07T08:32:10.839Z,6.20
2022-12-07T08:34:39.590Z,6.20
2022-12-07T08:37:06.979Z,6.10
2022-12-07T08:39:34.373Z,6.70
2022-12-07T08:42:01.787Z,6.33
2022-12-07T08:44:29.199Z,6.37
2022-12-07T08:47:00.724Z,6.20
2022-12-07T08:49:29.790Z,6.70
2022-12-07T08:51:58.554Z,7.00
2022-12-07T08:54:26.128Z,5.90
2022-12-07T08:56:58.752Z,5.40
2022-12-07T08:59:27.525Z,5.87
2022-12-07T09:01:55.121Z,5.67
2022-12-07T09:04:22.585Z,5.77
2022-12-07T09:06:50.172Z,5.53
2022-12-07T09:09:19.007Z,6.17
2022-12-07T09:11:46.827Z,6.80
2022-12-07T09:14:14.344Z,6.10
2022-12-07T09:16:42.132Z,7.37
2022-12-07T09:19:09.754Z,6.53
2022-12-07T09:21:37.189Z,6.60
2022-12-07T09:24:04.788Z,6.70
2022-12-07T09:26:33.583Z,6.83
2022-12-07T09:29:00.990Z,6.60
2022-12-07T09:31:28.457Z,7.00
2022-12-07T09:33:56.648Z,6.73
2022-12-07T09:36:24.159Z,6.27
2022-12-07T09:38:51.568Z,5.70
2022-12-07T09:41:19.013Z,6.40
2022-12-07T09:43:48.014Z,5.60
2022-12-07T09:46:17.833Z,5.97
2022-12-07T09:48:45.827Z,5.67
2022-12-07T09:51:22.436Z,5.10
2022-12-07T09:53:51.533Z,5.13
2022-12-07T09:56:20.177Z,5.73
2022-12-07T09:58:49.350Z,5.73
2022-12-07T10:01:17.972Z,6.03
2022-12-07T10:03:49.380Z,5.40
2022-12-07T10:06:16.828Z,5.33
2022-12-07T10:08:44.689Z,5.13
2022-12-07T10:11:15.619Z,5.27
2022-12-07T10:13:44.630Z,4.87
2022-12-07T10:16:29.698Z,5.53
2022-12-07T10:18:57.519Z,4.70
2022-12-07T10:21:25.615Z,5.13
2022-12-07T10:24:02.967Z,4.57
2022-12-07T10:26:32.563Z,4.60
2022-12-07T10:29:01.488Z,4.20
2022-12-07T10:31:30.482Z,4.60
2022-12-07T10:33:58.544Z,3.90
2022-12-07T10:36:27.308Z,4.27
2022-12-07T10:38:55.414Z,4.40
2022-12-07T10:41:22.801Z,4.00
2022-12-07T10:43:51.432Z,3.93
2022-12-07T10:46:33.930Z,4.13
2022-12-07T10:49:11.931Z,3.80
2022-12-07T10:51:45.056Z,3.80
2022-12-07T10:54:15.970Z,3.93
2022-12-07T10:57:01.171Z,4.17
2022-12-07T10:59:40.122Z,3.93
2022-12-07T11:02:18.967Z,4.10
2022-12-07T11:04:56.007Z,3.40
2022-12-07T11:07:29.818Z,3.93
2022-12-07T11:10:10.113Z,4.10
2022-12-07T11:12:45.884Z,3.70
2022-12-07T11:15:17.707Z,3.57
2022-12-07T11:17:47.654Z,3.27
2022-12-07T11:20:25.809Z,3.03
2022-12-07T11:22:57.754Z,3.17
2022-12-07T11:25:31.920Z,2.90
2022-12-07T11:28:05.191Z,3.27
2022-12-07T11:30:36.928Z,3.90
2022-12-07T11:33:14.243Z,3.40
2022-12-07T11:35:48.044Z,3.10
2022-12-07T11:38:18.899Z,3.70
2022-12-07T11:40:50.498Z,2.83
2022-12-07T11:43:23.274Z,3.30
2022-12-07T11:45:55.823Z,3.00
2022-12-07T11:48:25.278Z,3.30
2022-12-07T11:50:55.383Z,3.13
2022-12-07T11:53:25.041Z,3.07
2022-12-07T11:55:54.721Z,3.47
2022-12-07T11:58:25.327Z,3.97
2022-12-07T12:00:53.778Z,4.23
2022-12-07T12:03:24.890Z,3.20
2022-12-07T12:05:53.723Z,3.70
2022-12-07T12:11:18.393Z,3.00
2022-12-07T12:16:53.949Z,2.80
2022-12-07T12:19:27.569Z,3.93
2022-12-07T12:21:58.701Z,3.20
2022-12-07T12:24:28.121Z,2.60
2022-12-07T12:26:58.772Z,2.77
2022-12-07T12:29:30.391Z,2.70
2022-12-07T12:32:09.576Z,2.30
2022-12-07T12:34:48.330Z,2.60
2022-12-07T12:37:36.493Z,2.40
2022-12-07T12:40:21.828Z,2.90
2022-12-07T12:42:52.182Z,3.43
2022-12-07T12:45:22.336Z,3.37
2022-12-07T12:47:58.743Z,2.90
2022-12-07T12:50:27.467Z,3.63
2022-12-07T12:53:00.120Z,4.17
2022-12-07T12:55:45.226Z,3.50
2022-12-07T12:58:32.747Z,3.10
2022-12-07T13:01:18.921Z,3.07
2022-12-07T13:03:54.092Z,2.80
2022-12-07T13:06:34.652Z,2.60
2022-12-07T13:09:02.345Z,2.70
2022-12-07T13:11:31.206Z,3.90
2022-12-07T13:14:13.649Z,4.17
2022-12-07T13:16:43.371Z,3.10
2022-12-07T13:19:29.362Z,5.13
2022-12-07T13:21:56.941Z,4.60
2022-12-07T13:24:24.344Z,3.37
2022-12-07T13:26:57.881Z,9.90
2022-12-07T13:29:25.311Z,3.10
2022-12-07T13:31:54.519Z,3.47
2022-12-07T13:34:31.038Z,9.20
2022-12-07T13:36:58.452Z,3.53
2022-12-07T13:39:26.670Z,5.17
2022-12-07T13:41:55.883Z,3.13
2022-12-07T13:44:23.656Z,4.03
2022-12-07T13:46:54.290Z,9.00
2022-12-07T13:49:24.456Z,3.53
2022-12-07T13:51:52.070Z,7.20
2022-12-07T13:54:19.950Z,3.60
2022-12-07T13:56:49.997Z,3.20
2022-12-07T13:59:19.159Z,3.93
2022-12-07T14:01:47.798Z,6.00
2022-12-07T14:04:18.940Z,6.23
2022-12-07T14:06:50.719Z,5.97
2022-12-07T14:09:23.298Z,3.83
2022-12-07T14:11:51.803Z,4.30
2022-12-07T14:14:20.771Z,4.20
2022-12-07T14:16:57.570Z,3.13
2022-12-07T14:19:48.306Z,8.83
2022-12-07T14:22:35.846Z,3.70
2022-12-07T14:25:16.702Z,5.13
2022-12-07T14:27:50.071Z,3.63
2022-12-07T14:30:19.184Z,4.60
2022-12-07T14:32:49.508Z,3.50
2022-12-07T14:35:18.063Z,3.83
2022-12-07T14:37:46.533Z,3.80
2022-12-07T14:40:16.381Z,3.87
2022-12-07T14:42:43.977Z,3.67
2022-12-07T14:45:15.199Z,3.47
2022-12-07T14:50:30.332Z,5.10
2022-12-07T14:55:49.413Z,3.77
2022-12-07T14:58:17.671Z,4.03
2022-12-07T15:00:45.424Z,3.53
2022-12-07T15:03:13.992Z,3.63
2022-12-07T15:05:41.869Z,3.60
2022-12-07T15:08:10.604Z,3.60
2022-12-07T15:10:39.688Z,3.77
2022-12-07T15:13:28.239Z,4.03
2022-12-07T15:15:56.197Z,4.10
2022-12-07T15:18:24.148Z,3.83
2022-12-07T15:20:52.416Z,4.40
2022-12-07T15:23:19.852Z,4.03
2022-12-07T15:25:48.291Z,3.67
2022-12-07T15:28:17.327Z,3.73
2022-12-07T15:30:45.376Z,3.70
2022-12-07T15:33:13.373Z,3.50
2022-12-07T15:35:41.091Z,3.60
2022-12-07T15:38:09.087Z,3.83
2022-12-07T15:40:36.867Z,3.83
2022-12-07T15:43:04.686Z,3.80
2022-12-07T15:45:32.446Z,4.50
2022-12-07T15:48:27.297Z,4.50
2022-12-07T15:50:47.468Z,4.50
2022-12-07T15:53:14.882Z,5.73
2022-12-07T15:55:42.365Z,5.67
2022-12-07T15:58:10.164Z,5.03
2022-12-07T16:00:38.937Z,7.10
2022-12-07T16:03:06.427Z,5.10
2022-12-07T16:05:34.379Z,6.07
2022-12-07T16:08:01.828Z,5.63
2022-12-07T16:10:29.303Z,6.03
2022-12-07T16:12:56.759Z,11.67
2022-12-07T16:15:25.404Z,6.53
2022-12-07T16:17:54.450Z,7.00
2022-12-07T16:20:21.981Z,5.53
2022-12-07T16:22:52.836Z,7.37
2022-12-07T16:25:20.249Z,9.40
2022-12-07T16:27:47.657Z,6.00
2022-12-07T16:30:17.072Z,6.67
2022-12-07T16:32:44.760Z,6.10
2022-12-07T16:35:14.066Z,11.20
2022-12-07T16:37:43.598Z,9.17
2022-12-07T16:40:11.722Z,7.37
2022-12-07T16:42:39.113Z,28.90
2022-12-07T16:45:07.130Z,15.63
2022-12-07T16:47:34.579Z,7.57
2022-12-07T16:50:01.982Z,7.10
2022-12-07T16:52:31.001Z,7.70
2022-12-07T16:54:58.422Z,7.37
2022-12-07T16:57:25.934Z,6.80
2022-12-07T16:59:53.590Z,6.50
2022-12-07T17:02:21.059Z,6.03
2022-12-07T17:04:48.537Z,6.93
2022-12-07T17:07:15.956Z,6.60
2022-12-07T17:09:45.908Z,7.00
2022-12-07T17:12:13.356Z,9.37
2022-12-07T17:15:12.820Z,8.20
2022-12-07T17:17:40.907Z,20.60
2022-12-07T17:20:08.913Z,10.43
2022-12-07T17:22:36.321Z,9.23
2022-12-07T17:25:05.779Z,24.17
2022-12-07T17:27:33.512Z,9.87
2022-12-07T17:30:01.056Z,10.70
2022-12-07T17:32:28.631Z,18.07
2022-12-07T17:34:56.112Z,9.43
2022-12-07T17:37:23.674Z,8.27
2022-12-07T17:39:51.135Z,9.70
2022-12-07T17:42:38.070Z,7.10
2022-12-07T17:45:06.702Z,8.00
2022-12-07T17:47:34.257Z,8.43
2022-12-07T17:50:06.695Z,10.17
2022-12-07T17:52:52.445Z,9.60
2022-12-07T17:55:20.016Z,9.33
2022-12-07T17:57:48.785Z,8.77
2022-12-07T18:00:17.062Z,7.93
2022-12-07T18:02:44.512Z,7.53
2022-12-07T18:05:12.301Z,8.63
2022-12-07T18:07:39.790Z,8.40
2022-12-07T18:10:09.169Z,8.27
2022-12-07T18:12:36.652Z,8.27
2022-12-07T18:15:06.150Z,8.83
2022-12-07T18:17:33.747Z,9.37
2022-12-07T18:20:02.229Z,8.27
2022-12-07T18:22:30.729Z,8.60
2022-12-07T18:24:58.156Z,8.53
2022-12-07T18:27:25.578Z,9.77
2022-12-07T18:29:54.210Z,9.53
2022-12-07T18:32:23.099Z,9.90
2022-12-07T18:34:50.538Z,11.07
2022-12-07T18:37:18.120Z,10.93
2022-12-07T18:39:45.564Z,11.90
2022-12-07T18:42:12.995Z,12.90
2022-12-07T18:44:40.371Z,9.47
2022-12-07T18:47:07.841Z,10.30
2022-12-07T18:49:36.606Z,11.70
2022-12-07T18:52:04.022Z,9.30
2022-12-07T18:54:31.484Z,7.50
2022-12-07T18:56:58.897Z,9.00
2022-12-07T18:59:43.932Z,8.70
2022-12-07T19:02:12.794Z,8.00
2022-12-07T19:04:41.583Z,9.23
2022-12-07T19:07:08.982Z,10.47
2022-12-07T19:09:36.607Z,9.70
2022-12-07T19:12:05.465Z,8.17
2022-12-07T19:14:34.091Z,8.07
2022-12-07T19:17:02.970Z,9.43
2022-12-07T19:19:31.812Z,9.53
2022-12-07T19:22:00.779Z,9.10
2022-12-07T19:24:28.536Z,7.27
2022-12-07T19:26:56.089Z,7.63
2022-12-07T19:29:23.583Z,7.40
2022-12-07T19:31:51.124Z,8.93
2022-12-07T19:34:18.820Z,9.20
2022-12-07T19:36:47.170Z,8.63
2022-12-07T19:39:16.226Z,8.50
2022-12-07T19:41:43.946Z,8.17
2022-12-07T19:44:12.448Z,8.83
2022-12-07T19:46:40.170Z,8.33
2022-12-07T19:49:07.714Z,8.60
2022-12-07T19:51:36.175Z,9.00
2022-12-07T19:54:03.667Z,10.40
2022-12-07T19:56:32.580Z,8.83
2022-12-07T19:59:00.708Z,8.33
2022-12-07T20:01:28.411Z,7.83
2022-12-07T20:03:55.947Z,9.50
2022-12-07T20:06:23.684Z,10.17
2022-12-07T20:08:51.160Z,8.90
2022-12-07T20:11:37.363Z,9.10
2022-12-07T20:14:08.024Z,9.93
2022-12-07T20:16:35.557Z,9.30
2022-12-07T20:19:03.126Z,9.73
2022-12-07T20:21:30.527Z,8.77
2022-12-07T20:24:00.390Z,8.90
2022-12-07T20:26:28.095Z,8.53
2022-12-07T20:28:55.548Z,8.67
2022-12-07T20:31:24.361Z,8.07
2022-12-07T20:33:51.886Z,7.80
2022-12-07T20:36:19.811Z,7.90
2022-12-07T20:38:47.245Z,7.77
2022-12-07T20:41:29.275Z,6.83
2022-12-07T20:43:56.719Z,6.80
2022-12-07T20:46:25.571Z,7.10
2022-12-07T20:48:53.348Z,6.70
2022-12-07T20:51:20.824Z,7.13
2022-12-07T20:53:48.596Z,9.77
2022-12-07T20:56:19.865Z,8.73
2022-12-07T20:58:47.325Z,6.83
2022-12-07T21:01:15.111Z,7.23
2022-12-07T21:03:44.552Z,6.80
2022-12-07T21:06:13.621Z,6.83
2022-12-07T21:08:44.499Z,6.20
2022-12-07T21:11:11.925Z,6.60
2022-12-07T21:13:39.519Z,7.17
2022-12-07T21:16:08.393Z,6.77
2022-12-07T21:18:38.269Z,6.87
2022-12-07T21:21:07.396Z,7.77
2022-12-07T21:23:34.924Z,6.90
2022-12-07T21:26:02.611Z,6.77
2022-12-07T21:28:31.360Z,6.30
2022-12-07T21:31:14.581Z,6.57
2022-12-07T21:33:43.824Z,6.37
2022-12-07T21:36:13.527Z,6.90
2022-12-07T21:38:40.970Z,6.50
2022-12-07T21:41:12.106Z,7.50
2022-12-07T21:43:39.916Z,7.27
2022-12-07T21:46:07.366Z,8.20
2022-12-07T21:48:34.849Z,7.53
2022-12-07T21:51:05.887Z,8.13
2022-12-07T21:53:34.828Z,7.60
2022-12-07T21:56:03.020Z,6.60
2022-12-07T21:58:30.488Z,6.63
2022-12-07T22:00:58.446Z,7.50
2022-12-07T22:03:25.903Z,7.93
2022-12-07T22:05:53.410Z,7.47
2022-12-07T22:08:20.897Z,7.33
2022-12-07T22:10:49.680Z,7.57
2022-12-07T22:13:17.118Z,8.00
2022-12-07T22:15:43.980Z,8.50
2022-12-07T22:18:11.402Z,8.43
2022-12-07T22:20:38.842Z,10.40
2022-12-07T22:23:06.266Z,8.97
2022-12-07T22:25:33.689Z,8.63
2022-12-07T22:28:02.466Z,7.97
2022-12-07T22:30:29.863Z,8.33
2022-12-07T22:32:57.296Z,7.90
2022-12-07T22:35:24.711Z,8.93
2022-12-07T22:37:52.144Z,7.93
2022-12-07T22:40:19.558Z,7.40
2022-12-07T22:42:46.981Z,7.70
2022-12-07T22:45:15.995Z,7.70
2022-12-07T22:47:43.426Z,7.33
2022-12-07T22:50:11.401Z,8.03
2022-12-07T22:52:38.803Z,7.77
2022-12-07T22:55:07.055Z,7.80
2022-12-07T22:57:34.722Z,7.60
2022-12-07T23:00:02.145Z,7.60
2022-12-07T23:02:31.053Z,7.40
2022-12-07T23:04:58.524Z,7.70
2022-12-07T23:07:25.927Z,7.13
2022-12-07T23:09:53.356Z,6.87
2022-12-07T23:12:38.535Z,7.57
2022-12-07T23:15:06.723Z,6.13
2022-12-07T23:17:38.457Z,7.03
2022-12-07T23:20:06.785Z,6.67
2022-12-07T23:22:34.158Z,6.50
2022-12-07T23:25:02.018Z,7.13
2022-12-07T23:27:29.571Z,7.37
2022-12-07T23:29:56.959Z,6.60
2022-12-07T23:32:24.364Z,7.33
2022-12-07T23:34:53.089Z,7.60
2022-12-07T23:37:20.480Z,6.50
2022-12-07T23:39:47.907Z,6.80
2022-12-07T23:42:15.305Z,6.83
2022-12-07T23:44:42.741Z,6.67
2022-12-07T23:47:10.180Z,6.27
2022-12-07T23:49:37.746Z,7.27
2022-12-07T23:52:07.063Z,7.03
2022-12-07T23:54:34.539Z,7.50
2022-12-07T23:57:01.972Z,7.20
2022-12-07T23:59:29.402Z,7.77
